createdAt,value
2018-06-21T00:01:23.930Z,19.60
2018-06-21T00:03:52.149Z,19.54
2018-06-21T00:06:20.486Z,19.47
2018-06-21T00:08:48.945Z,19.58
2018-06-21T00:11:17.207Z,19.59
2018-06-21T00:13:45.497Z,19.58
2018-06-21T00:16:13.672Z,19.51
2018-06-21T00:18:41.901Z,19.57
2018-06-21T00:21:10.192Z,19.53
2018-06-21T00:23:38.656Z,19.54
2018-06-21T00:26:07.035Z,19.54
2018-06-21T00:28:35.342Z,19.45
2018-06-21T00:31:03.608Z,19.37
2018-06-21T00:33:31.956Z,19.31
2018-06-21T00:36:00.314Z,19.32
2018-06-21T00:38:28.566Z,19.24
2018-06-21T00:40:56.853Z,19.15
2018-06-21T00:43:25.275Z,19.10
2018-06-21T00:45:53.566Z,19.15
2018-06-21T00:48:21.864Z,19.06
2018-06-21T00:50:50.836Z,18.97
2018-06-21T00:53:19.095Z,18.92
2018-06-21T00:55:58.626Z,18.87
2018-06-21T00:58:26.933Z,18.81
2018-06-21T01:00:55.284Z,18.81
2018-06-21T01:03:23.636Z,18.77
2018-06-21T01:05:51.985Z,18.67
2018-06-21T01:08:20.323Z,18.64
2018-06-21T01:10:48.697Z,18.59
2018-06-21T01:13:17.016Z,18.56
2018-06-21T01:15:45.383Z,18.69
2018-06-21T01:18:13.709Z,18.59
2018-06-21T01:20:42.047Z,18.70
2018-06-21T01:23:11.190Z,18.72
2018-06-21T01:25:39.563Z,18.68
2018-06-21T01:28:08.182Z,18.64
2018-06-21T01:30:37.021Z,18.59
2018-06-21T01:33:05.433Z,18.43
2018-06-21T01:35:33.766Z,18.40
2018-06-21T01:38:02.744Z,18.38
2018-06-21T01:40:31.106Z,18.35
2018-06-21T01:42:59.454Z,18.33
2018-06-21T01:45:29.538Z,18.25
2018-06-21T01:48:00.687Z,18.29
2018-06-21T01:50:29.018Z,18.39
2018-06-21T01:52:57.351Z,18.37
2018-06-21T01:55:26.691Z,18.31
2018-06-21T01:57:55.777Z,18.30
2018-06-21T02:00:24.577Z,18.26
2018-06-21T02:02:53.109Z,18.18
2018-06-21T02:05:22.987Z,18.13
2018-06-21T02:07:52.551Z,18.07
2018-06-21T02:10:21.068Z,18.22
2018-06-21T02:12:49.716Z,18.22
2018-06-21T02:15:18.656Z,18.14
2018-06-21T02:17:46.914Z,18.01
2018-06-21T02:20:15.167Z,18.09
2018-06-21T02:22:45.136Z,18.10
2018-06-21T02:25:13.627Z,17.98
2018-06-21T02:27:42.899Z,17.91
2018-06-21T22:02:36.785Z,13.91
2018-06-21T22:05:04.956Z,13.84
2018-06-21T22:07:33.101Z,13.72
2018-06-21T22:10:01.284Z,13.67
2018-06-21T22:12:30.011Z,13.58
2018-06-21T22:14:58.851Z,13.53
2018-06-21T22:17:28.713Z,13.51
2018-06-21T22:19:57.887Z,13.61
2018-06-21T22:22:26.472Z,13.56
2018-06-21T22:24:55.207Z,13.44
2018-06-21T22:27:23.280Z,13.47
2018-06-21T22:29:51.383Z,13.33
2018-06-21T22:32:20.000Z,13.35
2018-06-21T22:34:48.159Z,13.19
2018-06-21T22:37:16.312Z,13.06
2018-06-21T22:39:44.464Z,13.01
2018-06-21T22:42:12.774Z,12.94
2018-06-21T22:44:42.039Z,12.85
2018-06-21T22:47:10.107Z,12.75
2018-06-21T22:49:38.262Z,12.77
2018-06-21T22:52:06.470Z,12.63
2018-06-21T22:54:34.640Z,12.72
2018-06-21T22:57:02.720Z,12.59
2018-06-21T22:59:30.823Z,12.64
2018-06-21T23:01:59.635Z,12.64
2018-06-21T23:04:27.719Z,12.54
2018-06-21T23:06:55.824Z,12.54
2018-06-21T23:09:23.899Z,12.47
2018-06-21T23:11:52.600Z,12.41
2018-06-21T23:14:20.876Z,12.40
2018-06-21T23:16:48.968Z,12.50
2018-06-21T23:19:27.459Z,12.42
2018-06-21T23:21:55.747Z,12.51
2018-06-21T23:24:24.572Z,12.39
2018-06-21T23:26:53.353Z,12.32
2018-06-21T23:29:21.365Z,12.20
2018-06-21T23:31:49.948Z,12.17
2018-06-21T23:34:18.979Z,12.07
2018-06-21T23:36:47.889Z,11.92
2018-06-21T23:39:16.105Z,12.05
2018-06-21T23:41:44.485Z,12.00
2018-06-21T23:44:13.797Z,12.02
2018-06-21T23:46:42.692Z,11.88
2018-06-21T23:49:11.404Z,11.82
2018-06-21T23:51:40.423Z,11.78
2018-06-21T23:54:10.552Z,11.70
2018-06-21T23:56:39.053Z,11.78
2018-06-21T23:59:07.685Z,11.77
